Dushanbe Airport
UTDD : now visible

Airfield :











YOU CAN JOIN US ON...

 
LOGIN :

Register | Disclaimer

   EN    FR    IT 

 









Legend :    VFR   Marginal VFR   IFR   Intensive IFR   Very Intensive IFR
Visi :
Ceiling :
>= 8 km
>= 3000ft
5 to 8 km
1000 to 3000 ft
1500m to 5 km
500 to 1000 ft
800 to 1500m
200 to 500 ft
< 800m
< 200 ft
Symbols :   Thunderstorms  Fog  Heavy snow  Heavy precipitations  Wind > 20 kt






- Airport Elevation : 2575 ft
- IATA code : DYU


UTDD - Dushanbe

CURRENT METAR :
  • 221430Z VRB01MPS 3300 BR FEW013 M01/M03 Q1031 R09/29//50 NOSIG RMK QFE704/0939

EXPIRED METARs :
  • 221400Z 00000MPS 3300 BR NSC M00/M02 Q1031 R09/29//50 NOSIG RMK QFE704/0939
  • 221330Z 03002MPS 3100 BR FEW071 01/M02 Q1031 R09/29//50 NOSIG RMK QFE704/0939
  • 221300Z 10001MPS 4400 BR NSC 01/M01 Q1031 R09/29//50 NOSIG RMK QFE704/0939
  • 221230Z 11002MPS 3500 BR NSC 01/M01 Q1031 R09/29//50 NOSIG RMK QFE704/0938
  • 221200Z 12002MPS 4700 BR FEW013 02/M02 Q1031 R09/29//50 NOSIG RMK QFE704/0938

TAF TAF UTDD
Valid from the 22 at 13:00 until the 23 at 01:00 UTC


221200Z 2213/2301 VRB02MPS 3100 BR FU FEW015 SCT030 OVC050
TEMPO 2213/2220 1200 BR FU
TEMPO 2220/2301 0600 FZFG VV003



MET'MAP, your aeronautical weather chart ! - Copyright ORBIFLY December 2007 - Disclaimer

ORBIFLY MET'MAP TEAM :

Programming & Development : Alexandra Zaïnal
Concept & original design : Baudouin d'Aumeries
Assistance for programming : Marc-Olivier Méhu
Technical & hardware support : Manuel Goepfert

Contact : metmap@orbifly.com




SOURCES & CREDITS :

   NOAA       Earth
Advisory